sensor_id;sensor_type;location;lat;lon;timestamp;P1;durP1;ratioP1;P2;durP2;ratioP2
13799;SDS011;6971;50.028;9.258;2022-11-13T00:04:35;18.87;;;15.93;;
13799;SDS011;6971;50.028;9.258;2022-11-13T00:09:36;20.27;;;16.10;;
13799;SDS011;6971;50.028;9.258;2022-11-13T00:14:37;19.80;;;16.63;;
13799;SDS011;6971;50.028;9.258;2022-11-13T00:19:38;18.73;;;15.93;;
13799;SDS011;6971;50.028;9.258;2022-11-13T00:24:39;23.40;;;16.07;;
13799;SDS011;6971;50.028;9.258;2022-11-13T00:29:40;20.37;;;15.27;;
13799;SDS011;6971;50.028;9.258;2022-11-13T00:34:41;17.80;;;14.77;;
13799;SDS011;6971;50.028;9.258;2022-11-13T00:39:42;20.40;;;15.97;;
13799;SDS011;6971;50.028;9.258;2022-11-13T00:44:42;20.87;;;16.00;;
13799;SDS011;6971;50.028;9.258;2022-11-13T00:49:43;18.27;;;15.47;;
13799;SDS011;6971;50.028;9.258;2022-11-13T00:54:44;18.57;;;14.77;;
13799;SDS011;6971;50.028;9.258;2022-11-13T00:59:45;21.80;;;14.60;;
13799;SDS011;6971;50.028;9.258;2022-11-13T01:04:46;17.57;;;14.53;;
13799;SDS011;6971;50.028;9.258;2022-11-13T01:09:50;20.67;;;15.63;;
13799;SDS011;6971;50.028;9.258;2022-11-13T01:14:51;21.03;;;15.47;;
13799;SDS011;6971;50.028;9.258;2022-11-13T01:19:52;20.70;;;15.20;;
13799;SDS011;6971;50.028;9.258;2022-11-13T01:24:53;23.07;;;16.47;;
13799;SDS011;6971;50.028;9.258;2022-11-13T01:29:54;16.47;;;13.93;;
13799;SDS011;6971;50.028;9.258;2022-11-13T01:34:55;15.30;;;13.57;;
13799;SDS011;6971;50.028;9.258;2022-11-13T01:39:57;21.00;;;14.50;;
13799;SDS011;6971;50.028;9.258;2022-11-13T01:44:58;16.90;;;13.53;;
13799;SDS011;6971;50.028;9.258;2022-11-13T01:50:00;19.33;;;14.50;;
13799;SDS011;6971;50.028;9.258;2022-11-13T01:55:09;18.47;;;13.93;;
13799;SDS011;6971;50.028;9.258;2022-11-13T02:00:12;15.20;;;12.13;;
13799;SDS011;6971;50.028;9.258;2022-11-13T02:05:13;18.47;;;12.47;;
13799;SDS011;6971;50.028;9.258;2022-11-13T02:10:15;15.30;;;12.73;;
13799;SDS011;6971;50.028;9.258;2022-11-13T02:15:17;15.77;;;11.60;;
13799;SDS011;6971;50.028;9.258;2022-11-13T02:20:39;13.90;;;12.40;;
13799;SDS011;6971;50.028;9.258;2022-11-13T02:25:51;13.17;;;10.90;;
13799;SDS011;6971;50.028;9.258;2022-11-13T02:30:54;15.87;;;12.10;;
13799;SDS011;6971;50.028;9.258;2022-11-13T02:35:54;19.57;;;11.60;;
13799;SDS011;6971;50.028;9.258;2022-11-13T02:40:55;12.03;;;10.53;;
13799;SDS011;6971;50.028;9.258;2022-11-13T02:45:56;12.23;;;10.87;;
13799;SDS011;6971;50.028;9.258;2022-11-13T02:50:57;14.00;;;10.90;;
13799;SDS011;6971;50.028;9.258;2022-11-13T02:55:58;13.80;;;11.27;;
13799;SDS011;6971;50.028;9.258;2022-11-13T03:01:00;18.70;;;11.83;;
13799;SDS011;6971;50.028;9.258;2022-11-13T03:06:02;12.27;;;10.90;;
13799;SDS011;6971;50.028;9.258;2022-11-13T03:11:07;13.10;;;11.30;;
13799;SDS011;6971;50.028;9.258;2022-11-13T03:16:10;13.07;;;10.70;;
13799;SDS011;6971;50.028;9.258;2022-11-13T03:21:24;15.80;;;11.43;;
13799;SDS011;6971;50.028;9.258;2022-11-13T03:26:25;13.37;;;10.07;;
13799;SDS011;6971;50.028;9.258;2022-11-13T03:31:29;12.63;;;11.20;;
13799;SDS011;6971;50.028;9.258;2022-11-13T03:36:30;16.83;;;11.57;;
13799;SDS011;6971;50.028;9.258;2022-11-13T03:41:31;13.17;;;11.43;;
13799;SDS011;6971;50.028;9.258;2022-11-13T03:46:32;12.97;;;10.27;;
13799;SDS011;6971;50.028;9.258;2022-11-13T03:51:33;16.00;;;11.33;;
13799;SDS011;6971;50.028;9.258;2022-11-13T03:56:34;12.13;;;10.83;;
13799;SDS011;6971;50.028;9.258;2022-11-13T04:01:35;12.37;;;10.53;;
13799;SDS011;6971;50.028;9.258;2022-11-13T04:06:36;12.67;;;10.17;;
13799;SDS011;6971;50.028;9.258;2022-11-13T04:11:36;13.07;;;10.17;;
13799;SDS011;6971;50.028;9.258;2022-11-13T04:16:38;14.30;;;10.10;;
13799;SDS011;6971;50.028;9.258;2022-11-13T04:21:39;10.77;;;9.70;;
13799;SDS011;6971;50.028;9.258;2022-11-13T04:26:40;11.83;;;10.37;;
13799;SDS011;6971;50.028;9.258;2022-11-13T04:31:40;11.90;;;9.40;;
13799;SDS011;6971;50.028;9.258;2022-11-13T04:36:41;12.20;;;10.77;;
13799;SDS011;6971;50.028;9.258;2022-11-13T04:41:42;11.53;;;10.07;;
13799;SDS011;6971;50.028;9.258;2022-11-13T04:47:01;10.63;;;9.47;;
13799;SDS011;6971;50.028;9.258;2022-11-13T04:52:11;11.83;;;9.67;;
13799;SDS011;6971;50.028;9.258;2022-11-13T04:57:12;13.47;;;10.17;;
13799;SDS011;6971;50.028;9.258;2022-11-13T05:02:13;13.23;;;10.37;;
13799;SDS011;6971;50.028;9.258;2022-11-13T05:07:15;12.50;;;11.20;;
13799;SDS011;6971;50.028;9.258;2022-11-13T05:12:15;14.10;;;11.63;;
13799;SDS011;6971;50.028;9.258;2022-11-13T05:17:16;11.57;;;10.17;;
13799;SDS011;6971;50.028;9.258;2022-11-13T05:22:17;14.50;;;11.20;;
13799;SDS011;6971;50.028;9.258;2022-11-13T05:27:18;12.77;;;10.43;;
13799;SDS011;6971;50.028;9.258;2022-11-13T05:32:19;13.47;;;10.90;;
13799;SDS011;6971;50.028;9.258;2022-11-13T05:37:20;14.10;;;11.27;;
13799;SDS011;6971;50.028;9.258;2022-11-13T05:42:20;12.57;;;10.63;;
13799;SDS011;6971;50.028;9.258;2022-11-13T05:47:21;12.47;;;10.07;;
13799;SDS011;6971;50.028;9.258;2022-11-13T05:52:22;15.20;;;11.13;;
13799;SDS011;6971;50.028;9.258;2022-11-13T05:57:23;11.70;;;10.13;;
13799;SDS011;6971;50.028;9.258;2022-11-13T06:02:23;14.77;;;11.43;;
13799;SDS011;6971;50.028;9.258;2022-11-13T06:07:24;11.77;;;10.50;;
13799;SDS011;6971;50.028;9.258;2022-11-13T06:12:25;12.97;;;11.53;;
13799;SDS011;6971;50.028;9.258;2022-11-13T06:17:26;12.90;;;10.60;;
13799;SDS011;6971;50.028;9.258;2022-11-13T06:22:27;15.90;;;11.17;;
13799;SDS011;6971;50.028;9.258;2022-11-13T06:27:27;14.30;;;10.87;;
13799;SDS011;6971;50.028;9.258;2022-11-13T06:32:29;14.43;;;10.00;;
13799;SDS011;6971;50.028;9.258;2022-11-13T06:37:30;12.10;;;10.23;;
13799;SDS011;6971;50.028;9.258;2022-11-13T06:42:31;12.43;;;10.20;;
13799;SDS011;6971;50.028;9.258;2022-11-13T06:47:32;11.43;;;9.90;;
13799;SDS011;6971;50.028;9.258;2022-11-13T06:52:32;12.87;;;9.77;;
13799;SDS011;6971;50.028;9.258;2022-11-13T06:57:33;11.60;;;10.07;;
13799;SDS011;6971;50.028;9.258;2022-11-13T07:02:34;32.27;;;22.47;;
13799;SDS011;6971;50.028;9.258;2022-11-13T07:07:35;39.77;;;29.33;;
13799;SDS011;6971;50.028;9.258;2022-11-13T07:12:36;16.97;;;14.87;;
13799;SDS011;6971;50.028;9.258;2022-11-13T07:17:38;12.03;;;10.67;;
13799;SDS011;6971;50.028;9.258;2022-11-13T07:22:38;11.33;;;9.60;;
13799;SDS011;6971;50.028;9.258;2022-11-13T07:27:43;14.97;;;13.27;;
13799;SDS011;6971;50.028;9.258;2022-11-13T07:32:44;16.03;;;14.33;;
13799;SDS011;6971;50.028;9.258;2022-11-13T07:37:45;16.93;;;13.97;;
13799;SDS011;6971;50.028;9.258;2022-11-13T07:42:46;41.00;;;31.03;;
13799;SDS011;6971;50.028;9.258;2022-11-13T07:47:47;31.83;;;25.33;;
13799;SDS011;6971;50.028;9.258;2022-11-13T07:52:48;23.57;;;21.00;;
13799;SDS011;6971;50.028;9.258;2022-11-13T07:57:55;20.90;;;18.73;;
13799;SDS011;6971;50.028;9.258;2022-11-13T08:02:57;15.60;;;14.00;;
13799;SDS011;6971;50.028;9.258;2022-11-13T08:07:58;13.47;;;12.07;;
13799;SDS011;6971;50.028;9.258;2022-11-13T08:13:00;13.10;;;11.73;;
13799;SDS011;6971;50.028;9.258;2022-11-13T08:18:03;13.17;;;11.13;;
13799;SDS011;6971;50.028;9.258;2022-11-13T08:23:21;14.77;;;11.67;;
13799;SDS011;6971;50.028;9.258;2022-11-13T08:28:22;18.63;;;16.63;;
13799;SDS011;6971;50.028;9.258;2022-11-13T08:33:24;20.97;;;17.17;;
13799;SDS011;6971;50.028;9.258;2022-11-13T08:38:25;33.47;;;29.43;;
13799;SDS011;6971;50.028;9.258;2022-11-13T08:43:28;45.40;;;37.90;;
13799;SDS011;6971;50.028;9.258;2022-11-13T08:48:29;44.57;;;37.90;;
13799;SDS011;6971;50.028;9.258;2022-11-13T08:53:45;43.03;;;36.63;;
13799;SDS011;6971;50.028;9.258;2022-11-13T08:58:45;49.10;;;40.47;;
13799;SDS011;6971;50.028;9.258;2022-11-13T09:03:47;43.17;;;34.60;;
13799;SDS011;6971;50.028;9.258;2022-11-13T09:08:48;38.23;;;34.13;;
13799;SDS011;6971;50.028;9.258;2022-11-13T09:13:49;45.97;;;36.83;;
13799;SDS011;6971;50.028;9.258;2022-11-13T09:18:50;31.03;;;26.40;;
13799;SDS011;6971;50.028;9.258;2022-11-13T09:23:51;28.77;;;24.57;;
13799;SDS011;6971;50.028;9.258;2022-11-13T09:28:55;25.17;;;21.10;;
13799;SDS011;6971;50.028;9.258;2022-11-13T09:34:03;12.90;;;11.60;;
13799;SDS011;6971;50.028;9.258;2022-11-13T09:39:04;9.70;;;8.80;;
13799;SDS011;6971;50.028;9.258;2022-11-13T09:44:05;8.50;;;7.70;;
13799;SDS011;6971;50.028;9.258;2022-11-13T09:54:21;7.10;;;6.47;;
13799;SDS011;6971;50.028;9.258;2022-11-13T09:59:28;7.17;;;6.57;;
13799;SDS011;6971;50.028;9.258;2022-11-13T10:15:14;8.70;;;7.50;;
13799;SDS011;6971;50.028;9.258;2022-11-13T10:20:21;10.30;;;8.80;;
13799;SDS011;6971;50.028;9.258;2022-11-13T10:25:45;8.07;;;7.23;;
13799;SDS011;6971;50.028;9.258;2022-11-13T10:30:47;7.97;;;7.27;;
13799;SDS011;6971;50.028;9.258;2022-11-13T10:41:12;13.53;;;12.10;;
13799;SDS011;6971;50.028;9.258;2022-11-13T10:46:18;18.50;;;13.73;;
13799;SDS011;6971;50.028;9.258;2022-11-13T10:51:28;11.73;;;9.87;;
13799;SDS011;6971;50.028;9.258;2022-11-13T10:56:33;9.33;;;8.37;;
13799;SDS011;6971;50.028;9.258;2022-11-13T11:01:35;15.93;;;13.80;;
13799;SDS011;6971;50.028;9.258;2022-11-13T11:06:37;13.23;;;11.57;;
13799;SDS011;6971;50.028;9.258;2022-11-13T11:11:39;15.53;;;12.63;;
13799;SDS011;6971;50.028;9.258;2022-11-13T11:16:59;16.90;;;13.30;;
13799;SDS011;6971;50.028;9.258;2022-11-13T11:22:36;10.37;;;9.17;;
13799;SDS011;6971;50.028;9.258;2022-11-13T11:32:47;8.07;;;7.23;;
13799;SDS011;6971;50.028;9.258;2022-11-13T11:38:15;10.40;;;8.17;;
13799;SDS011;6971;50.028;9.258;2022-11-13T11:48:26;8.17;;;7.37;;
13799;SDS011;6971;50.028;9.258;2022-11-13T12:04:41;10.27;;;8.67;;
13799;SDS011;6971;50.028;9.258;2022-11-13T12:21:17;3.00;;;2.70;;
13799;SDS011;6971;50.028;9.258;2022-11-13T12:26:45;3.63;;;2.60;;
13799;SDS011;6971;50.028;9.258;2022-11-13T12:32:00;3.67;;;2.00;;
13799;SDS011;6971;50.028;9.258;2022-11-13T12:37:17;2.37;;;2.17;;
13799;SDS011;6971;50.028;9.258;2022-11-13T12:42:30;5.93;;;4.80;;
13799;SDS011;6971;50.028;9.258;2022-11-13T12:47:35;32.43;;;29.00;;
13799;SDS011;6971;50.028;9.258;2022-11-13T12:52:36;7.23;;;6.47;;
13799;SDS011;6971;50.028;9.258;2022-11-13T12:57:45;5.10;;;4.60;;
13799;SDS011;6971;50.028;9.258;2022-11-13T13:08:41;10.13;;;6.43;;
13799;SDS011;6971;50.028;9.258;2022-11-13T13:13:57;5.90;;;4.43;;
13799;SDS011;6971;50.028;9.258;2022-11-13T13:19:25;8.73;;;6.07;;
13799;SDS011;6971;50.028;9.258;2022-11-13T13:24:32;10.40;;;6.33;;
13799;SDS011;6971;50.028;9.258;2022-11-13T13:29:34;3.33;;;2.23;;
13799;SDS011;6971;50.028;9.258;2022-11-13T13:35:02;8.00;;;6.37;;
13799;SDS011;6971;50.028;9.258;2022-11-13T13:40:15;6.67;;;5.27;;
13799;SDS011;6971;50.028;9.258;2022-11-13T13:45:25;10.27;;;7.90;;
13799;SDS011;6971;50.028;9.258;2022-11-13T13:50:54;6.37;;;4.77;;
13799;SDS011;6971;50.028;9.258;2022-11-13T13:55:57;5.13;;;4.63;;
13799;SDS011;6971;50.028;9.258;2022-11-13T14:00:59;6.47;;;3.70;;
13799;SDS011;6971;50.028;9.258;2022-11-13T14:06:09;3.40;;;3.10;;
13799;SDS011;6971;50.028;9.258;2022-11-13T14:11:24;3.50;;;3.20;;
13799;SDS011;6971;50.028;9.258;2022-11-13T14:16:28;2.80;;;2.60;;
13799;SDS011;6971;50.028;9.258;2022-11-13T14:21:30;3.33;;;3.03;;
13799;SDS011;6971;50.028;9.258;2022-11-13T14:26:33;5.07;;;3.63;;
13799;SDS011;6971;50.028;9.258;2022-11-13T14:31:34;2.47;;;2.27;;
13799;SDS011;6971;50.028;9.258;2022-11-13T14:36:36;4.23;;;2.63;;
13799;SDS011;6971;50.028;9.258;2022-11-13T14:41:40;2.73;;;2.30;;
13799;SDS011;6971;50.028;9.258;2022-11-13T14:46:56;3.97;;;2.80;;
13799;SDS011;6971;50.028;9.258;2022-11-13T14:51:59;3.60;;;2.37;;
13799;SDS011;6971;50.028;9.258;2022-11-13T14:57:07;3.83;;;1.87;;
13799;SDS011;6971;50.028;9.258;2022-11-13T15:02:19;2.03;;;1.70;;
13799;SDS011;6971;50.028;9.258;2022-11-13T15:07:27;3.40;;;1.93;;
13799;SDS011;6971;50.028;9.258;2022-11-13T15:12:30;12.17;;;1.90;;
13799;SDS011;6971;50.028;9.258;2022-11-13T15:17:31;2.77;;;1.80;;
13799;SDS011;6971;50.028;9.258;2022-11-13T15:22:32;6.57;;;2.03;;
13799;SDS011;6971;50.028;9.258;2022-11-13T15:27:34;9.33;;;2.20;;
13799;SDS011;6971;50.028;9.258;2022-11-13T15:32:38;2.20;;;1.80;;
13799;SDS011;6971;50.028;9.258;2022-11-13T15:37:39;2.73;;;2.30;;
13799;SDS011;6971;50.028;9.258;2022-11-13T15:42:40;5.20;;;2.10;;
13799;SDS011;6971;50.028;9.258;2022-11-13T15:47:43;4.43;;;2.10;;
13799;SDS011;6971;50.028;9.258;2022-11-13T15:52:45;4.33;;;2.17;;
13799;SDS011;6971;50.028;9.258;2022-11-13T15:57:48;3.67;;;2.30;;
13799;SDS011;6971;50.028;9.258;2022-11-13T16:02:49;2.77;;;2.23;;
13799;SDS011;6971;50.028;9.258;2022-11-13T16:07:54;2.93;;;1.90;;
13799;SDS011;6971;50.028;9.258;2022-11-13T16:12:55;3.93;;;2.80;;
13799;SDS011;6971;50.028;9.258;2022-11-13T16:17:56;3.57;;;1.90;;
13799;SDS011;6971;50.028;9.258;2022-11-13T16:22:58;7.10;;;3.30;;
13799;SDS011;6971;50.028;9.258;2022-11-13T16:27:59;3.47;;;2.20;;
13799;SDS011;6971;50.028;9.258;2022-11-13T16:33:00;2.83;;;2.20;;
13799;SDS011;6971;50.028;9.258;2022-11-13T16:38:09;4.13;;;2.20;;
13799;SDS011;6971;50.028;9.258;2022-11-13T16:43:14;4.40;;;2.40;;
13799;SDS011;6971;50.028;9.258;2022-11-13T16:48:15;3.97;;;3.60;;
13799;SDS011;6971;50.028;9.258;2022-11-13T16:53:34;3.00;;;2.40;;
13799;SDS011;6971;50.028;9.258;2022-11-13T16:58:34;4.93;;;3.23;;
13799;SDS011;6971;50.028;9.258;2022-11-13T17:03:35;2.63;;;2.37;;
13799;SDS011;6971;50.028;9.258;2022-11-13T17:08:36;4.17;;;2.50;;
13799;SDS011;6971;50.028;9.258;2022-11-13T17:13:37;2.73;;;2.37;;
13799;SDS011;6971;50.028;9.258;2022-11-13T17:18:38;2.87;;;2.40;;
13799;SDS011;6971;50.028;9.258;2022-11-13T17:23:57;4.23;;;2.53;;
13799;SDS011;6971;50.028;9.258;2022-11-13T17:29:00;2.60;;;2.40;;
13799;SDS011;6971;50.028;9.258;2022-11-13T17:34:01;4.40;;;3.07;;
13799;SDS011;6971;50.028;9.258;2022-11-13T17:39:02;3.33;;;2.97;;
13799;SDS011;6971;50.028;9.258;2022-11-13T17:44:03;4.63;;;2.90;;
13799;SDS011;6971;50.028;9.258;2022-11-13T17:49:04;3.13;;;2.87;;
13799;SDS011;6971;50.028;9.258;2022-11-13T17:54:13;5.03;;;2.90;;
13799;SDS011;6971;50.028;9.258;2022-11-13T17:59:14;7.07;;;3.37;;
13799;SDS011;6971;50.028;9.258;2022-11-13T18:04:15;10.63;;;7.07;;
13799;SDS011;6971;50.028;9.258;2022-11-13T18:09:15;5.17;;;3.30;;
13799;SDS011;6971;50.028;9.258;2022-11-13T18:14:17;4.63;;;3.97;;
13799;SDS011;6971;50.028;9.258;2022-11-13T18:19:32;4.77;;;3.53;;
13799;SDS011;6971;50.028;9.258;2022-11-13T18:24:33;6.07;;;3.67;;
13799;SDS011;6971;50.028;9.258;2022-11-13T18:29:34;4.13;;;3.53;;
13799;SDS011;6971;50.028;9.258;2022-11-13T18:34:35;5.23;;;4.43;;
13799;SDS011;6971;50.028;9.258;2022-11-13T18:39:36;5.67;;;4.70;;
13799;SDS011;6971;50.028;9.258;2022-11-13T18:44:37;6.67;;;5.00;;
13799;SDS011;6971;50.028;9.258;2022-11-13T18:49:39;6.77;;;5.30;;
13799;SDS011;6971;50.028;9.258;2022-11-13T18:54:41;6.97;;;6.27;;
13799;SDS011;6971;50.028;9.258;2022-11-13T18:59:42;6.20;;;4.90;;
13799;SDS011;6971;50.028;9.258;2022-11-13T19:04:42;6.03;;;4.73;;
13799;SDS011;6971;50.028;9.258;2022-11-13T19:09:44;8.40;;;5.03;;
13799;SDS011;6971;50.028;9.258;2022-11-13T19:14:49;6.10;;;5.00;;
13799;SDS011;6971;50.028;9.258;2022-11-13T19:19:50;10.07;;;7.90;;
13799;SDS011;6971;50.028;9.258;2022-11-13T19:24:51;10.43;;;7.67;;
13799;SDS011;6971;50.028;9.258;2022-11-13T19:29:52;10.33;;;7.63;;
13799;SDS011;6971;50.028;9.258;2022-11-13T19:34:53;9.10;;;7.37;;
13799;SDS011;6971;50.028;9.258;2022-11-13T19:39:54;8.10;;;6.20;;
13799;SDS011;6971;50.028;9.258;2022-11-13T19:44:54;9.37;;;7.17;;
13799;SDS011;6971;50.028;9.258;2022-11-13T19:49:55;8.07;;;5.33;;
13799;SDS011;6971;50.028;9.258;2022-11-13T19:54:56;6.57;;;5.57;;
13799;SDS011;6971;50.028;9.258;2022-11-13T19:59:57;8.20;;;6.27;;
13799;SDS011;6971;50.028;9.258;2022-11-13T20:04:57;10.33;;;5.50;;
13799;SDS011;6971;50.028;9.258;2022-11-13T20:09:58;5.90;;;4.90;;
13799;SDS011;6971;50.028;9.258;2022-11-13T20:14:59;6.40;;;4.60;;
13799;SDS011;6971;50.028;9.258;2022-11-13T20:20:00;6.40;;;5.30;;
13799;SDS011;6971;50.028;9.258;2022-11-13T20:25:01;6.10;;;5.40;;
13799;SDS011;6971;50.028;9.258;2022-11-13T20:30:02;12.63;;;10.23;;
13799;SDS011;6971;50.028;9.258;2022-11-13T20:35:03;7.13;;;5.07;;
13799;SDS011;6971;50.028;9.258;2022-11-13T20:40:06;6.53;;;5.30;;
13799;SDS011;6971;50.028;9.258;2022-11-13T20:45:08;9.27;;;6.80;;
13799;SDS011;6971;50.028;9.258;2022-11-13T20:50:09;8.43;;;6.47;;
13799;SDS011;6971;50.028;9.258;2022-11-13T20:55:10;16.17;;;10.73;;
13799;SDS011;6971;50.028;9.258;2022-11-13T21:00:11;20.57;;;13.27;;
13799;SDS011;6971;50.028;9.258;2022-11-13T21:05:19;7.10;;;6.13;;
13799;SDS011;6971;50.028;9.258;2022-11-13T21:10:22;8.83;;;7.00;;
13799;SDS011;6971;50.028;9.258;2022-11-13T21:15:22;8.30;;;6.03;;
13799;SDS011;6971;50.028;9.258;2022-11-13T21:20:23;6.60;;;5.70;;
13799;SDS011;6971;50.028;9.258;2022-11-13T21:25:44;5.70;;;5.10;;
13799;SDS011;6971;50.028;9.258;2022-11-13T21:30:45;8.67;;;5.03;;
13799;SDS011;6971;50.028;9.258;2022-11-13T21:36:09;7.63;;;5.63;;
13799;SDS011;6971;50.028;9.258;2022-11-13T21:41:41;7.07;;;5.30;;
13799;SDS011;6971;50.028;9.258;2022-11-13T21:46:41;9.13;;;6.13;;
13799;SDS011;6971;50.028;9.258;2022-11-13T21:51:42;8.10;;;5.60;;
13799;SDS011;6971;50.028;9.258;2022-11-13T21:56:43;7.30;;;5.43;;
13799;SDS011;6971;50.028;9.258;2022-11-13T22:01:43;8.20;;;6.17;;
13799;SDS011;6971;50.028;9.258;2022-11-13T22:06:48;8.10;;;6.60;;
13799;SDS011;6971;50.028;9.258;2022-11-13T22:11:50;8.70;;;6.17;;
13799;SDS011;6971;50.028;9.258;2022-11-13T22:16:52;9.30;;;7.27;;
13799;SDS011;6971;50.028;9.258;2022-11-13T22:21:53;7.57;;;6.67;;
13799;SDS011;6971;50.028;9.258;2022-11-13T22:26:54;8.63;;;7.17;;
13799;SDS011;6971;50.028;9.258;2022-11-13T22:31:55;7.97;;;6.17;;
13799;SDS011;6971;50.028;9.258;2022-11-13T22:36:55;9.33;;;6.10;;
13799;SDS011;6971;50.028;9.258;2022-11-13T22:42:20;9.47;;;6.93;;
13799;SDS011;6971;50.028;9.258;2022-11-13T22:47:20;7.63;;;5.83;;
13799;SDS011;6971;50.028;9.258;2022-11-13T22:52:25;7.33;;;5.27;;
13799;SDS011;6971;50.028;9.258;2022-11-13T22:57:28;7.53;;;5.73;;
13799;SDS011;6971;50.028;9.258;2022-11-13T23:02:31;8.10;;;5.90;;
13799;SDS011;6971;50.028;9.258;2022-11-13T23:07:31;7.30;;;6.33;;
13799;SDS011;6971;50.028;9.258;2022-11-13T23:12:32;7.10;;;6.27;;
13799;SDS011;6971;50.028;9.258;2022-11-13T23:17:32;6.47;;;5.83;;
13799;SDS011;6971;50.028;9.258;2022-11-13T23:22:34;9.43;;;6.50;;
13799;SDS011;6971;50.028;9.258;2022-11-13T23:27:35;8.67;;;5.80;;
13799;SDS011;6971;50.028;9.258;2022-11-13T23:32:36;8.47;;;6.17;;
13799;SDS011;6971;50.028;9.258;2022-11-13T23:37:43;6.87;;;5.90;;
13799;SDS011;6971;50.028;9.258;2022-11-13T23:42:45;7.27;;;6.10;;
13799;SDS011;6971;50.028;9.258;2022-11-13T23:47:46;7.97;;;6.33;;
13799;SDS011;6971;50.028;9.258;2022-11-13T23:52:52;7.90;;;5.73;;
13799;SDS011;6971;50.028;9.258;2022-11-13T23:57:59;6.70;;;5.60;;
